TimeEDT,TemperatureF,Dew PointF,Humidity,Sea Level PressureIn,VisibilityMPH,Wind Direction,Wind SpeedMPH,Gust SpeedMPH,PrecipitationIn,Events,Conditions,WindDirDegrees,DateUTC
12:56 AM,60.1,57.0,90,30.31,-9999.0,Calm,Calm,-,N/A,,Clear,0,2013-10-30 04:56:00
1:56 AM,62.1,57.9,86,30.30,-9999.0,ENE,6.9,-,N/A,,Clear,60,2013-10-30 05:56:00
2:56 AM,62.1,57.9,86,30.30,-9999.0,NE,3.5,-,N/A,,Clear,50,2013-10-30 06:56:00
3:56 AM,61.0,57.9,90,30.30,-9999.0,North,4.6,-,N/A,,Clear,360,2013-10-30 07:56:00
4:56 AM,60.1,57.0,90,30.28,-9999.0,North,5.8,-,N/A,,Clear,360,2013-10-30 08:56:00
5:56 AM,60.1,57.9,93,30.29,-9999.0,Calm,Calm,-,N/A,,Clear,0,2013-10-30 09:56:00
6:56 AM,61.0,59.0,93,30.30,-9999.0,NNE,4.6,-,N/A,,Clear,20,2013-10-30 10:56:00
7:56 AM,61.0,59.0,93,30.31,-9999.0,North,5.8,-,N/A,,Clear,10,2013-10-30 11:56:00
8:56 AM,64.0,61.0,90,30.32,-9999.0,Calm,Calm,-,N/A,,Clear,0,2013-10-30 12:56:00
9:56 AM,66.9,60.1,79,30.33,-9999.0,NE,4.6,-,N/A,,Clear,40,2013-10-30 13:56:00
10:56 AM,69.1,55.9,63,30.32,-9999.0,East,4.6,-,N/A,,Clear,80,2013-10-30 14:56:00
11:56 AM,71.1,54.0,55,30.31,-9999.0,ENE,5.8,-,N/A,,Clear,70,2013-10-30 15:56:00
12:56 PM,71.1,53.1,53,30.29,-9999.0,ENE,5.8,-,N/A,,Clear,60,2013-10-30 16:56:00
1:56 PM,71.1,52.0,51,30.26,-9999.0,ENE,5.8,-,N/A,,Clear,60,2013-10-30 17:56:00
2:56 PM,71.1,54.0,55,30.24,-9999.0,ENE,6.9,-,N/A,,Clear,60,2013-10-30 18:56:00
3:56 PM,72.0,55.0,55,30.22,-9999.0,East,5.8,-,N/A,,Clear,100,2013-10-30 19:56:00
4:56 PM,72.0,55.9,57,30.22,-9999.0,ESE,9.2,-,N/A,,Clear,120,2013-10-30 20:56:00
5:56 PM,69.1,57.0,65,30.22,-9999.0,SSE,5.8,-,N/A,,Mostly Cloudy,150,2013-10-30 21:56:00
6:56 PM,66.9,57.0,70,30.25,-9999.0,SSE,3.5,-,N/A,,Scattered Clouds,160,2013-10-30 22:56:00
7:56 PM,64.9,57.9,78,30.25,-9999.0,SSE,4.6,-,N/A,,Overcast,160,2013-10-30 23:56:00
8:56 PM,63.0,59.0,87,30.26,-9999.0,Calm,Calm,-,N/A,,Clear,0,2013-10-31 00:56:00
9:56 PM,64.0,59.0,84,30.26,-9999.0,SSE,5.8,-,N/A,,Clear,150,2013-10-31 01:56:00
10:56 PM,62.1,59.0,90,30.26,-9999.0,South,4.6,-,N/A,,Clear,190,2013-10-31 02:56:00
11:56 PM,62.1,57.9,86,30.25,-9999.0,Calm,Calm,-,N/A,,Clear,0,2013-10-31 03:56:00